Weather at Busan Transportation Corporation Heliport

Public forecast

Using degrees Celsius for public forecast. Weather courtesy of forecast.io.

Closest aviation weather report (METAR) to Busan Transportation Corporation Heliport

Closest report is Gimhae International Airport, 6.2 nm (11.6 km) WNW. Retrieved 2020/09/24 04:00 UTC (33 minutes ago):

RKPK 240400Z 01013KT 9999 SCT030 BKN080 BKN180 26/14 Q1013

Closest aviation forecast (TAF) to Busan Transportation Corporation Heliport

Closest forecast is Gimhae International Airport, 6.2 nm (11.6 km) WNW. Retrieved 2020-09-24 00:00 UTC (5 hours ago):

TAF RKPK 232300Z 2400/2506 36010KT 9999 SCT030 BKN100 TX24/2406Z TN16/2421Z BECMG 2405/2409 BKN030 BKN100